East Ryegate, Vermont
Current Conditions -  °F | °C
As of 1:51 AM on Thursday 27 Nov 2014 (Local Time) from KMPV Reporting Station
Light Snow Light Snow  
Wind Chill: 19°   Ceiling: 1600
Heat Index: 27°   Visibility: 1.5mi
Dew Point: 25°   Wind: 8mph
Humidity: 92%   Direction: 330°NNW
Pressure: 29.89"   Gusts: NA
Location:  44.2°N, 72.06°W
Report Text: KMPV 270651Z AUTO 33007KT 1 1/2SM -SN BR BKN016 OVC021 M03/M04 A2989 RMK AO2 SLP140 P0001 T10281039
Loading
Personal Weather Stations






























Interactive Weather Map New forecast layout! Learn more

10-Day Weather Forecast

Advertisements
Track Severe Weather on mobile